createdAt,value
2019-05-10T00:00:35.933Z,59.37
2019-05-10T00:03:25.774Z,60.92
2019-05-10T00:06:16.229Z,62.85
2019-05-10T00:08:47.327Z,66.68
2019-05-10T00:11:33.778Z,62.23
2019-05-10T00:14:24.153Z,55.74
2019-05-10T00:16:57.828Z,51.35
2019-05-10T00:19:29.647Z,52.48
2019-05-10T00:22:01.197Z,54.24
2019-05-10T00:24:33.020Z,55.74
2019-05-10T00:27:05.031Z,56.99
2019-05-10T00:29:36.828Z,58.45
2019-05-10T00:32:08.626Z,59.54
2019-05-10T00:34:40.356Z,60.99
2019-05-10T00:37:12.084Z,62.08
2019-05-10T00:39:44.584Z,67.20
2019-05-10T00:42:16.220Z,62.30
2019-05-10T00:44:47.951Z,57.30
2019-05-10T00:47:19.673Z,51.65
2019-05-10T00:49:51.505Z,52.46
2019-05-10T00:52:23.242Z,53.96
2019-05-10T00:54:54.965Z,55.79
2019-05-10T00:57:26.796Z,56.69
2019-05-10T00:59:58.528Z,57.83
2019-05-10T01:02:30.270Z,59.64
2019-05-10T01:05:01.997Z,60.19
2019-05-10T01:07:33.849Z,62.18
2019-05-10T01:10:07.795Z,67.78
2019-05-10T01:12:39.345Z,63.16
2019-05-10T01:15:12.117Z,59.31
2019-05-10T01:17:43.953Z,52.92
2019-05-10T01:20:15.759Z,53.01
2019-05-10T01:22:47.383Z,54.41
2019-05-10T01:25:33.924Z,55.88
2019-05-10T01:27:53.046Z,58.02
2019-05-10T01:30:24.876Z,59.60
2019-05-10T01:32:56.775Z,61.70
2019-05-10T01:35:28.701Z,62.91
2019-05-10T01:38:02.277Z,67.04
2019-05-10T01:40:34.008Z,61.20
2019-05-10T01:43:06.136Z,55.33
2019-05-10T01:45:37.859Z,51.43
2019-05-10T01:48:10.987Z,52.34
2019-05-10T01:50:43.753Z,54.32
2019-05-10T01:53:15.587Z,55.44
2019-05-10T01:55:52.315Z,56.91
2019-05-10T01:58:20.920Z,58.12
2019-05-10T02:00:52.751Z,59.82
2019-05-10T02:03:24.483Z,60.92
2019-05-10T02:05:56.215Z,61.58
2019-05-10T02:08:27.950Z,63.07
2019-05-10T02:11:00.359Z,68.39
2019-05-10T02:13:32.086Z,62.76
2019-05-10T02:16:03.916Z,56.55
2019-05-10T02:18:35.641Z,51.86
2019-05-10T02:21:07.396Z,52.93
2019-05-10T02:23:39.125Z,53.82
2019-05-10T02:26:10.925Z,54.98
2019-05-10T02:28:42.659Z,56.30
2019-05-10T02:31:14.398Z,57.86
2019-05-10T02:33:46.125Z,59.37
2019-05-10T02:36:17.962Z,61.14
2019-05-10T02:38:49.685Z,62.33
2019-05-10T02:41:21.414Z,68.33
2019-05-10T02:43:53.249Z,62.77
2019-05-10T02:46:25.063Z,56.79
2019-05-10T02:48:56.685Z,52.28
2019-05-10T02:51:28.786Z,53.16
2019-05-10T02:54:01.149Z,54.29
2019-05-10T02:56:33.818Z,55.55
2019-05-10T02:59:06.780Z,57.12
2019-05-10T03:01:44.594Z,59.31
2019-05-10T03:04:16.586Z,60.64
2019-05-10T03:06:51.257Z,61.98
2019-05-10T03:09:27.768Z,67.10
2019-05-10T03:12:08.180Z,62.14
2019-05-10T03:14:42.727Z,56.17
2019-05-10T03:17:16.205Z,52.57
2019-05-10T03:19:53.626Z,53.34
2019-05-10T03:22:26.494Z,54.89
2019-05-10T03:24:58.237Z,56.50
2019-05-10T03:27:29.957Z,57.33
2019-05-10T03:30:01.780Z,58.31
2019-05-10T03:32:33.502Z,59.06
2019-05-10T03:35:07.637Z,61.75
2019-05-10T03:37:39.734Z,66.59
2019-05-10T03:40:11.841Z,62.20
2019-05-10T03:42:43.562Z,57.66
2019-05-10T03:45:15.522Z,53.43
2019-05-10T03:47:48.662Z,54.04
2019-05-10T03:50:20.390Z,55.54
2019-05-10T03:52:52.785Z,57.33
2019-05-10T03:55:24.524Z,59.23
2019-05-10T03:57:56.260Z,60.46
2019-05-10T04:00:28.468Z,62.10
2019-05-10T04:03:00.104Z,66.05
2019-05-10T04:05:31.835Z,60.20
2019-05-10T04:08:04.451Z,56.87
2019-05-10T04:10:35.973Z,52.63
2019-05-10T04:13:07.798Z,54.48
2019-05-10T04:15:39.589Z,56.06
2019-05-10T04:18:11.337Z,58.18
2019-05-10T04:20:43.069Z,59.52
2019-05-10T04:23:15.276Z,61.36
2019-05-10T04:25:46.903Z,64.80
2019-05-10T04:28:18.642Z,61.57
2019-05-10T04:30:50.370Z,57.12
2019-05-10T04:33:22.095Z,52.17
2019-05-10T04:35:53.630Z,53.87
2019-05-10T04:38:25.366Z,56.20
2019-05-10T04:40:59.181Z,57.42
2019-05-10T04:43:32.699Z,58.78
2019-05-10T04:46:04.959Z,59.69
2019-05-10T04:48:36.716Z,62.57
2019-05-10T04:51:08.456Z,64.02
2019-05-10T04:53:40.193Z,61.08
2019-05-10T04:56:12.016Z,53.67
2019-05-10T04:58:43.733Z,54.68
2019-05-10T05:01:16.985Z,55.98
2019-05-10T05:03:48.822Z,58.23
2019-05-10T05:06:20.555Z,59.67
2019-05-10T05:08:53.134Z,60.26
2019-05-10T05:11:24.655Z,62.20
2019-05-10T05:13:56.412Z,64.04
2019-05-10T05:16:28.137Z,63.32
2019-05-10T05:18:59.997Z,56.95
2019-05-10T05:21:31.727Z,53.86
2019-05-10T05:24:03.475Z,55.36
2019-05-10T05:26:35.198Z,57.04
2019-05-10T05:29:06.942Z,58.61
2019-05-10T05:31:38.777Z,59.86
2019-05-10T05:34:10.503Z,62.19
2019-05-10T05:36:42.375Z,63.44
2019-05-10T05:39:14.014Z,56.73
2019-05-10T05:41:51.648Z,54.06
2019-05-10T05:44:20.312Z,54.75
2019-05-10T05:46:52.405Z,56.50
2019-05-10T05:49:25.000Z,57.69
2019-05-10T05:51:56.831Z,59.34
2019-05-10T05:54:28.557Z,59.51
2019-05-10T05:57:00.297Z,61.44
2019-05-10T05:59:32.039Z,63.06
2019-05-10T06:02:07.478Z,59.01
2019-05-10T06:04:40.791Z,55.64
2019-05-10T06:07:10.688Z,55.77
2019-05-10T06:09:42.552Z,57.46
2019-05-10T06:12:14.965Z,59.43
2019-05-10T06:14:49.730Z,60.61
2019-05-10T06:17:23.769Z,61.40
2019-05-10T06:19:53.534Z,62.84
2019-05-10T06:22:26.239Z,61.66
2019-05-10T06:24:58.002Z,57.12
2019-05-10T06:27:35.250Z,55.81
2019-05-10T06:30:06.294Z,56.70
2019-05-10T06:32:38.124Z,57.59
2019-05-10T06:35:14.088Z,58.70
2019-05-10T06:37:44.415Z,59.34
2019-05-10T06:40:16.542Z,60.04
2019-05-10T06:42:48.275Z,61.47
2019-05-10T06:45:20.015Z,62.42
2019-05-10T06:47:53.414Z,61.83
2019-05-10T06:50:30.143Z,57.23
2019-05-10T06:53:00.675Z,56.74
2019-05-10T06:55:32.613Z,58.55
2019-05-10T06:58:04.358Z,59.48
2019-05-10T07:00:38.050Z,59.53
2019-05-10T07:03:09.444Z,60.26
2019-05-10T07:05:41.182Z,60.53
2019-05-10T07:08:17.535Z,61.17
2019-05-10T07:10:46.459Z,63.48
2019-05-10T07:13:18.299Z,58.95
2019-05-10T07:15:50.041Z,55.41
2019-05-10T07:18:24.283Z,55.94
2019-05-10T07:21:00.911Z,56.05
2019-05-10T07:23:30.314Z,56.73
2019-05-10T07:26:02.276Z,56.91
2019-05-10T07:28:34.083Z,57.71
2019-05-10T07:31:05.832Z,56.84
2019-05-10T07:33:40.180Z,56.57
2019-05-10T07:36:20.249Z,56.61
2019-05-10T07:38:53.768Z,57.47
2019-05-10T07:41:29.164Z,56.71
2019-05-10T07:44:08.198Z,55.83
2019-05-10T07:46:39.874Z,54.44
2019-05-10T07:49:23.665Z,54.90
2019-05-10T07:51:45.274Z,54.90
2019-05-10T07:54:17.181Z,54.45
2019-05-10T07:56:49.990Z,53.28
2019-05-10T07:59:27.985Z,50.96
2019-05-10T08:01:55.802Z,49.74
2019-05-10T08:04:31.839Z,49.17
2019-05-10T08:07:02.247Z,46.65
2019-05-10T08:09:41.796Z,46.76
2019-05-10T08:12:12.912Z,43.78
2019-05-10T08:14:44.466Z,43.40
2019-05-10T08:17:19.218Z,41.80
2019-05-10T08:19:51.837Z,42.47
2019-05-10T08:22:24.239Z,40.49
2019-05-10T08:24:56.536Z,40.61
2019-05-10T08:27:28.124Z,42.89
2019-05-10T08:32:34.976Z,42.93
2019-05-10T08:35:16.293Z,42.78
2019-05-10T08:37:43.330Z,43.66
2019-05-10T08:40:19.746Z,45.02
2019-05-10T08:42:54.423Z,45.02
2019-05-10T08:45:22.689Z,46.02
2019-05-10T08:48:00.883Z,45.79
2019-05-10T08:50:43.880Z,46.21
2019-05-10T08:53:04.360Z,47.06
2019-05-10T08:55:34.320Z,48.04
2019-05-10T08:58:06.132Z,49.22
2019-05-10T09:00:49.613Z,49.66
2019-05-10T09:03:18.041Z,49.51
2019-05-10T09:05:47.202Z,50.95
2019-05-10T09:08:20.234Z,50.53
2019-05-10T09:10:52.974Z,51.17
2019-05-10T09:13:28.699Z,50.70
2019-05-10T09:15:58.571Z,49.20
2019-05-10T09:18:30.331Z,48.11
2019-05-10T09:21:08.587Z,48.36
2019-05-10T09:23:35.423Z,48.71
2019-05-10T09:26:10.557Z,49.07
2019-05-10T09:28:42.118Z,50.22
2019-05-10T09:31:22.015Z,49.52
2019-05-10T09:33:49.747Z,50.94
2019-05-10T09:36:23.093Z,51.85
2019-05-10T09:38:54.875Z,48.98
2019-05-10T09:41:27.836Z,48.45
2019-05-10T09:44:02.893Z,47.57
2019-05-10T09:46:35.434Z,49.35
2019-05-10T09:49:15.794Z,49.66
2019-05-10T09:51:45.259Z,47.04
2019-05-10T09:54:23.252Z,49.06
2019-05-10T09:56:54.005Z,48.58
2019-05-10T09:59:27.754Z,50.26
2019-05-10T10:01:59.120Z,50.70
2019-05-10T10:04:31.631Z,53.22
2019-05-10T10:07:04.419Z,54.13
2019-05-10T10:09:42.438Z,55.22
2019-05-10T10:12:10.398Z,54.49
2019-05-10T10:14:43.502Z,54.99
2019-05-10T10:17:18.431Z,55.89
2019-05-10T10:19:49.709Z,54.95
2019-05-10T10:22:21.439Z,54.67
2019-05-10T10:24:55.208Z,54.67
2019-05-10T10:27:34.191Z,53.52
2019-05-10T10:30:00.111Z,54.45
2019-05-10T10:32:37.614Z,54.27
2019-05-10T10:35:13.320Z,53.49
2019-05-10T10:37:44.557Z,53.12
2019-05-10T10:40:18.331Z,54.68
2019-05-10T10:42:50.704Z,53.95
2019-05-10T10:45:22.574Z,53.97
2019-05-10T10:47:57.130Z,54.27
2019-05-10T10:50:27.971Z,53.08
2019-05-10T10:52:59.707Z,53.33
2019-05-10T10:55:36.621Z,51.76
2019-05-10T10:58:07.182Z,51.45
2019-05-10T11:00:39.255Z,51.70
2019-05-10T11:03:11.115Z,50.34
2019-05-10T11:05:42.867Z,51.38
2019-05-10T11:08:14.616Z,51.77
2019-05-10T11:10:46.361Z,51.84
2019-05-10T11:13:40.505Z,52.16
2019-05-10T11:16:09.646Z,52.20
2019-05-10T11:18:35.445Z,52.18
2019-05-10T11:21:07.205Z,52.19
2019-05-10T11:23:41.954Z,52.50
2019-05-10T11:26:13.530Z,51.91
2019-05-10T11:28:45.262Z,52.01
2019-05-10T11:31:17.019Z,51.63
2019-05-10T11:33:56.013Z,50.99
2019-05-10T11:36:22.465Z,51.87
2019-05-10T11:38:58.533Z,51.93
2019-05-10T11:41:31.251Z,50.85
2019-05-10T11:44:05.610Z,51.23
2019-05-10T11:46:37.239Z,51.22
2019-05-10T11:49:10.688Z,51.07
2019-05-10T11:51:47.933Z,50.87
2019-05-10T11:54:16.974Z,50.82
2019-05-10T11:56:58.495Z,49.93
2019-05-10T11:59:33.812Z,49.36
2019-05-10T12:02:09.187Z,49.46
2019-05-10T12:04:42.550Z,49.52
2019-05-10T12:07:12.966Z,46.90
2019-05-10T12:09:45.078Z,48.14
2019-05-10T12:12:16.817Z,48.88
2019-05-10T12:14:48.726Z,49.00
2019-05-10T12:17:24.062Z,46.63
2019-05-10T12:19:56.398Z,46.15
2019-05-10T12:22:32.070Z,47.24
2019-05-10T12:25:23.321Z,47.65
2019-05-10T12:27:44.287Z,48.14
2019-05-10T12:30:11.488Z,47.03
2019-05-10T12:32:55.736Z,47.23
2019-05-10T12:35:21.502Z,45.82
2019-05-10T12:37:54.418Z,45.77
2019-05-10T12:40:26.143Z,46.69
2019-05-10T12:42:57.891Z,47.27
2019-05-10T12:45:31.371Z,46.85
2019-05-10T12:48:02.908Z,47.75
2019-05-10T12:50:34.740Z,47.28
2019-05-10T12:53:14.034Z,47.24
2019-05-10T12:55:40.328Z,47.90
2019-05-10T12:58:12.072Z,47.46
2019-05-10T13:00:46.525Z,46.92
2019-05-10T13:03:19.378Z,47.95
2019-05-10T13:05:52.954Z,48.15
2019-05-10T13:08:24.012Z,47.66
2019-05-10T13:10:55.876Z,47.99
2019-05-10T13:13:30.083Z,47.96
2019-05-10T13:16:03.689Z,49.09
2019-05-10T13:18:49.736Z,49.04
2019-05-10T13:23:42.559Z,51.28
2019-05-10T13:26:14.399Z,49.00
2019-05-10T13:28:46.143Z,49.76
2019-05-10T13:31:17.919Z,48.94
2019-05-10T13:33:49.657Z,49.29
2019-05-10T13:36:21.411Z,49.28
2019-05-10T13:38:56.120Z,48.75
2019-05-10T13:41:27.989Z,48.65
2019-05-10T13:44:05.042Z,48.93
2019-05-10T13:46:33.062Z,49.69
2019-05-10T13:49:04.886Z,49.22
2019-05-10T13:51:36.516Z,48.30
2019-05-10T13:54:08.258Z,49.44
2019-05-10T13:56:45.202Z,49.76
2019-05-10T13:59:49.065Z,49.93
2019-05-10T14:02:31.947Z,48.64
2019-05-10T14:04:54.645Z,47.57
2019-05-10T14:07:26.395Z,45.94
2019-05-10T14:09:58.129Z,47.50
2019-05-10T14:12:29.960Z,48.39
2019-05-10T14:15:08.279Z,47.95
2019-05-10T14:17:35.394Z,48.06
2019-05-10T14:20:19.739Z,47.49
2019-05-10T14:22:48.363Z,47.03
2019-05-10T14:25:17.157Z,48.27
2019-05-10T14:27:49.365Z,47.99
2019-05-10T14:30:21.205Z,48.59
2019-05-10T14:32:52.959Z,48.65
2019-05-10T14:35:24.710Z,49.51
2019-05-10T14:38:07.512Z,49.96
2019-05-10T14:40:30.779Z,49.68
2019-05-10T14:43:02.779Z,49.44
2019-05-10T14:45:34.526Z,49.80
2019-05-10T14:48:06.252Z,50.24
2019-05-10T14:50:38.006Z,50.44
2019-05-10T14:53:13.601Z,50.71
2019-05-10T14:55:45.520Z,50.66
2019-05-10T14:58:18.505Z,50.92
2019-05-10T15:00:51.762Z,49.69
2019-05-10T15:03:25.232Z,50.01
2019-05-10T15:06:01.565Z,49.52
2019-05-10T15:08:34.321Z,48.53
2019-05-10T15:11:07.397Z,49.31
2019-05-10T15:13:39.423Z,49.14
2019-05-10T15:16:26.241Z,49.23
2019-05-10T15:18:50.442Z,49.40
2019-05-10T15:21:22.182Z,49.92
2019-05-10T15:24:00.774Z,49.43
2019-05-10T15:26:43.227Z,50.79
2019-05-10T15:29:22.070Z,51.93
2019-05-10T15:31:55.585Z,52.49
2019-05-10T15:34:28.125Z,52.40
2019-05-10T15:37:09.201Z,52.94
2019-05-10T15:39:38.596Z,52.66
2019-05-10T15:42:10.334Z,53.32
2019-05-10T15:44:42.104Z,53.10
2019-05-10T15:47:20.639Z,52.54
2019-05-10T15:49:47.081Z,51.98
2019-05-10T15:52:23.330Z,51.71
2019-05-10T15:54:53.286Z,51.72
2019-05-10T15:57:25.428Z,51.71
2019-05-10T15:59:59.181Z,51.83
2019-05-10T16:02:30.796Z,52.00
2019-05-10T16:05:02.572Z,52.38
2019-05-10T16:07:35.953Z,53.35
2019-05-10T16:10:08.248Z,54.72
2019-05-10T16:12:43.113Z,54.89
2019-05-10T16:15:19.937Z,55.63
2019-05-10T16:17:46.850Z,56.69
2019-05-10T16:20:18.730Z,56.89
2019-05-10T16:22:50.457Z,57.16
2019-05-10T16:25:22.223Z,56.94
2019-05-10T16:27:53.948Z,58.44
2019-05-10T16:30:25.714Z,57.71
2019-05-10T16:32:57.467Z,59.02
2019-05-10T16:35:38.323Z,58.90
2019-05-10T16:38:02.745Z,59.86
2019-05-10T16:40:34.603Z,59.63
2019-05-10T16:43:06.797Z,59.85
2019-05-10T16:45:39.927Z,60.33
2019-05-10T16:48:11.677Z,60.83
2019-05-10T16:50:43.437Z,61.06
2019-05-10T16:53:15.192Z,61.51
2019-05-10T16:55:46.963Z,63.67
2019-05-10T16:58:22.134Z,61.70
2019-05-10T17:00:52.052Z,56.99
2019-05-10T17:03:23.806Z,53.72
2019-05-10T17:05:58.644Z,53.93
2019-05-10T17:08:30.601Z,54.13
2019-05-10T17:11:09.611Z,55.28
2019-05-10T17:13:40.998Z,55.52
2019-05-10T17:16:11.662Z,56.14
2019-05-10T17:18:50.023Z,56.62
2019-05-10T17:21:19.033Z,57.40
2019-05-10T17:23:51.958Z,57.96
2019-05-10T17:26:23.703Z,58.95
2019-05-10T17:28:56.707Z,59.51
2019-05-10T17:31:28.468Z,60.34
2019-05-10T17:34:00.224Z,60.27
2019-05-10T17:36:31.978Z,61.26
2019-05-10T17:39:05.090Z,62.27
2019-05-10T17:41:36.764Z,63.72
2019-05-10T17:44:08.487Z,61.17
2019-05-10T17:46:40.875Z,56.67
2019-05-10T17:49:12.631Z,52.73
2019-05-10T17:51:44.408Z,53.13
2019-05-10T17:54:17.491Z,54.32
2019-05-10T17:56:49.151Z,54.94
2019-05-10T17:59:20.952Z,56.26
2019-05-10T18:01:52.735Z,57.47
2019-05-10T18:04:24.503Z,58.08
2019-05-10T18:06:56.143Z,59.73
2019-05-10T18:09:28.093Z,60.22
2019-05-10T18:11:59.748Z,61.03
2019-05-10T18:14:31.318Z,61.49
2019-05-10T18:17:02.887Z,62.27
2019-05-10T18:19:35.861Z,62.96
2019-05-10T18:22:07.650Z,65.61
2019-05-10T18:24:42.138Z,61.07
2019-05-10T18:27:14.044Z,56.39
2019-05-10T18:29:45.718Z,52.84
2019-05-10T18:32:17.504Z,53.23
2019-05-10T18:34:50.608Z,54.35
2019-05-10T18:37:23.367Z,55.54
2019-05-10T18:39:55.470Z,56.93
2019-05-10T18:42:27.954Z,58.21
2019-05-10T18:44:59.976Z,59.50
2019-05-10T18:47:33.391Z,59.99
2019-05-10T18:50:06.897Z,61.23
2019-05-10T18:52:38.552Z,62.06
2019-05-10T18:55:10.709Z,62.54
2019-05-10T18:57:45.306Z,64.52
2019-05-10T19:00:22.920Z,60.56
2019-05-10T19:02:55.212Z,56.22
2019-05-10T19:05:31.520Z,53.49
2019-05-10T19:08:05.320Z,54.50
2019-05-10T19:10:37.853Z,55.43
2019-05-10T19:13:09.838Z,56.15
2019-05-10T19:15:46.271Z,57.15
2019-05-10T19:18:17.687Z,58.28
2019-05-10T19:20:53.486Z,58.42
2019-05-10T19:23:25.789Z,59.26
2019-05-10T19:25:58.824Z,59.78
2019-05-10T19:28:30.606Z,60.07
2019-05-10T19:31:03.576Z,60.69
2019-05-10T19:33:38.085Z,61.62
2019-05-10T19:36:13.053Z,62.77
2019-05-10T19:38:42.530Z,64.74
2019-05-10T19:41:14.322Z,61.01
2019-05-10T19:43:49.900Z,56.75
2019-05-10T19:46:19.902Z,52.82
2019-05-10T19:48:51.662Z,53.80
2019-05-10T19:51:23.481Z,54.70
2019-05-10T19:53:55.214Z,55.98
2019-05-10T19:56:30.201Z,56.77
2019-05-10T19:59:05.438Z,57.51
2019-05-10T20:01:34.515Z,58.53
2019-05-10T20:04:09.361Z,59.47
2019-05-10T20:06:41.048Z,60.45
2019-05-10T20:09:13.812Z,62.54
2019-05-10T20:11:45.477Z,64.09
2019-05-10T20:14:17.429Z,60.14
2019-05-10T20:16:53.240Z,56.65
2019-05-10T20:19:24.203Z,53.03
2019-05-10T20:21:56.219Z,53.32
2019-05-10T20:24:27.982Z,54.40
2019-05-10T20:27:00.144Z,55.23
2019-05-10T20:29:37.087Z,56.27
2019-05-10T20:32:09.943Z,57.52
2019-05-10T20:34:41.789Z,58.18
2019-05-10T20:37:15.045Z,59.04
2019-05-10T20:39:46.820Z,60.18
2019-05-10T20:42:20.599Z,61.16
2019-05-10T20:45:06.182Z,62.39
2019-05-10T20:47:25.524Z,65.06
2019-05-10T20:49:58.459Z,61.32
2019-05-10T20:52:30.451Z,56.06
2019-05-10T20:55:06.457Z,52.77
2019-05-10T20:57:39.035Z,53.55
2019-05-10T21:00:13.062Z,54.59
2019-05-10T21:02:45.167Z,55.51
2019-05-10T21:05:17.039Z,56.77
2019-05-10T21:07:48.783Z,57.50
2019-05-10T21:10:20.553Z,58.71
2019-05-10T21:12:52.304Z,59.87
2019-05-10T21:15:24.058Z,60.82
2019-05-10T21:17:55.819Z,61.71
2019-05-10T21:20:27.609Z,63.00
2019-05-10T21:22:59.343Z,66.05
2019-05-10T21:25:31.067Z,61.36
2019-05-10T21:28:02.822Z,57.24
2019-05-10T21:30:37.534Z,53.70
2019-05-10T21:33:09.409Z,54.59
2019-05-10T21:35:41.139Z,55.69
2019-05-10T21:38:13.912Z,56.87
2019-05-10T21:40:45.687Z,57.85
2019-05-10T21:43:17.423Z,59.28
2019-05-10T21:45:49.185Z,59.87
2019-05-10T21:48:20.859Z,60.97
2019-05-10T21:50:52.610Z,62.08
2019-05-10T21:53:24.361Z,63.22
2019-05-10T21:55:56.210Z,66.13
2019-05-10T21:58:27.978Z,61.69
2019-05-10T22:00:59.729Z,55.85
2019-05-10T22:03:32.675Z,56.08
2019-05-10T22:06:04.775Z,57.66
2019-05-10T22:08:48.799Z,59.06
2019-05-10T22:11:11.687Z,60.79
2019-05-10T22:13:43.444Z,61.67
2019-05-10T22:16:15.203Z,63.71
2019-05-10T22:18:48.975Z,59.85
2019-05-10T22:21:25.526Z,55.71
2019-05-10T22:23:57.484Z,56.73
2019-05-10T22:26:31.312Z,58.21
2019-05-10T22:29:03.158Z,60.44
2019-05-10T22:31:34.931Z,61.33
2019-05-10T22:34:06.677Z,63.29
2019-05-10T22:36:38.416Z,64.70
2019-05-10T22:39:10.180Z,60.31
2019-05-10T22:41:41.913Z,54.36
2019-05-10T22:44:13.661Z,54.75
2019-05-10T22:46:45.424Z,56.53
2019-05-10T22:49:17.165Z,58.39
2019-05-10T22:51:49.004Z,60.21
2019-05-10T22:54:20.740Z,62.06
2019-05-10T22:56:52.486Z,63.40
2019-05-10T22:59:24.134Z,58.34
2019-05-10T23:01:55.979Z,55.58
2019-05-10T23:04:27.723Z,57.74
2019-05-10T23:06:59.572Z,59.39
2019-05-10T23:09:31.613Z,60.76
2019-05-10T23:12:03.368Z,62.26
2019-05-10T23:14:35.144Z,62.64
2019-05-10T23:17:07.181Z,57.31
2019-05-10T23:19:38.915Z,56.90
2019-05-10T23:22:10.648Z,58.48
2019-05-10T23:24:42.504Z,60.51
2019-05-10T23:27:14.240Z,62.13
2019-05-10T23:29:45.973Z,63.13
2019-05-10T23:32:17.910Z,63.10
2019-05-10T23:34:49.752Z,57.90
2019-05-10T23:37:21.613Z,55.83
2019-05-10T23:39:53.322Z,57.43
2019-05-10T23:42:25.055Z,59.22
2019-05-10T23:44:56.795Z,61.49
2019-05-10T23:47:28.527Z,62.29
2019-05-10T23:50:00.363Z,63.97
2019-05-10T23:52:32.097Z,59.94
2019-05-10T23:55:04.973Z,55.63
2019-05-10T23:57:38.372Z,56.01
